Tuluksak, Alaska
Current Conditions -  °F | °C
As of 7:56 PM on Monday 26 Jan 2015 (Local Time) from PFKW Reporting Station
Overcast Overcast  
Wind Chill: -28°   Ceiling: 6500
Heat Index: -5°   Visibility: 10mi
Dew Point: -11°   Wind: 18mph
Humidity: 76%   Direction: 30°NNE
Pressure: 29.77"   Gusts: NA
Location:  61.09°N, 160.98°W
Report Text: PFKW 270456Z AUTO 03016KT 10SM BKN065 BKN080 OVC100 M21/M24 A2977 RMK AO2 SLP082 T12061239 FZRANO
Loading
Personal Weather Stations






























Interactive Weather Map New forecast layout! Learn more

10-Day Weather Forecast

Advertisements
Track Severe Weather on mobile